Time;durP1;ratioP1;P1;durP2;ratioP2;P2;SDS_P1;SDS_P2;PMS_P1;PMS_P2;Temp;Humidity;BMP_temperature;BMP_pressure;BME280_temperature;BME280_humidity;BME280_pressure;Samples;Min_cycle;Max_cycle;Signal;HPM_P1;HPM_P2
2023/03/10 00:02:08;;;;;;;;;;;;;;;7.34;100.00;99207.22;5590037;31;34714;-66
2023/03/10 00:05:19;;;;;;;;;;;;;;;7.28;100.00;99201.81;5589937;31;34895;-67
2023/03/10 00:08:25;;;;;;;;;;;;;;;7.32;100.00;99197.84;5591003;31;34367;-66
2023/03/10 00:11:33;;;;;;;;;;;;;;;7.19;100.00;99192.31;5590575;31;34134;-65
2023/03/10 00:14:39;;;;;;;;;;;;;;;7.06;100.00;99205.28;5589786;31;34565;-65
2023/03/10 00:17:48;;;;;;;;;;;;;;;6.97;100.00;99200.03;5590595;31;34802;-65
2023/03/10 00:20:54;;;;;;;;;;;;;;;6.90;100.00;99193.81;5589757;31;34873;-65
2023/03/10 00:24:04;;;;;;;;;;;;;;;6.93;100.00;99198.72;5590459;31;34261;-66
2023/03/10 00:27:13;;;;;;;;;;;;;;;6.83;100.00;99202.56;5589624;31;34273;-65
2023/03/10 00:30:22;;;;;;;;;;;;;;;6.73;100.00;99202.78;5590466;31;34255;-65
2023/03/10 00:33:32;;;;;;;;;;;;;;;6.65;100.00;99199.38;5590484;31;33184;-65
2023/03/10 00:36:44;;;;;;;;;;;;;;;6.58;100.00;99201.88;5590369;31;34895;-65
2023/03/10 00:39:54;;;;;;;;;;;;;;;6.51;100.00;99203.53;5590398;31;34231;-65
2023/03/10 00:43:03;;;;;;;;;;;;;;;6.46;100.00;99198.78;5590327;31;34598;-65
2023/03/10 00:46:09;;;;;;;;;;;;;;;6.40;100.00;99193.37;5589535;31;34343;-65
2023/03/10 00:49:18;;;;;;;;;;;;;;;6.36;100.00;99184.16;5590232;31;34153;-65
2023/03/10 00:52:30;;;;;;;;;;;;;;;6.33;100.00;99177.44;5590134;31;34340;-65
2023/03/10 00:55:40;;;;;;;;;;;;;;;6.26;100.00;99173.00;5590221;31;34971;-66
2023/03/10 00:58:49;;;;;;;;;;;;;;;6.26;100.00;99165.94;5590259;31;34339;-66
2023/03/10 01:01:59;;;;;;;;;;;;;;;6.46;100.00;99161.91;5590112;31;34257;-65
2023/03/10 01:05:08;;;;;;;;;;;;;;;6.37;100.00;99152.41;5590264;31;34573;-65
2023/03/10 01:08:17;;;;;;;;;;;;;;;6.24;100.00;99160.03;5590136;31;34197;-65
2023/03/10 01:11:25;;;;;;;;;;;;;;;6.14;100.00;99158.56;5589971;31;34648;-65
2023/03/10 01:14:38;;;;;;;;;;;;;;;6.05;100.00;99155.16;5590100;31;34195;-64
2023/03/10 01:17:46;;;;;;;;;;;;;;;6.00;100.00;99153.00;5589896;31;34821;-66
2023/03/10 01:20:54;;;;;;;;;;;;;;;5.97;100.00;99147.25;5589941;31;34248;-65
2023/03/10 01:24:03;;;;;;;;;;;;;;;5.95;100.00;99154.50;5576701;31;33369;-65
2023/03/10 01:27:10;;;;;;;;;;;;;;;5.91;100.00;99145.28;5589995;31;34789;-65
2023/03/10 01:30:19;;;;;;;;;;;;;;;5.88;100.00;99151.72;5589653;31;34295;-65
2023/03/10 01:33:25;;;;;;;;;;;;;;;5.80;100.00;99149.09;5576644;31;34274;-66
2023/03/10 01:36:33;;;;;;;;;;;;;;;5.76;100.00;99139.84;5589928;31;34387;-65
2023/03/10 01:39:41;;;;;;;;;;;;;;;5.74;100.00;99138.41;5589884;31;34190;-65
2023/03/10 01:42:49;;;;;;;;;;;;;;;5.72;100.00;99143.00;5589042;31;34997;-65
2023/03/10 01:46:00;;;;;;;;;;;;;;;5.67;100.00;99131.16;5589838;31;34274;-65
2023/03/10 01:49:27;;;;;;;;;;;;;;;5.61;100.00;99126.59;5589667;31;34989;-65
2023/03/10 01:52:41;;;;;;;;;;;;;;;5.53;100.00;99123.94;5589678;31;34864;-65
2023/03/10 01:55:56;;;;;;;;;;;;;;;5.61;100.00;99126.59;5589419;31;34063;-66
2023/03/10 01:59:10;;;;;;;;;;;;;;;5.79;100.00;99113.22;5588966;31;34232;-66
2023/03/10 02:02:20;;;;;;;;;;;;;;;6.23;100.00;99123.31;5589653;31;34234;-65
2023/03/10 02:05:30;;;;;;;;;;;;;;;5.98;100.00;99107.59;5589704;31;34787;-65
2023/03/10 02:08:41;;;;;;;;;;;;;;;5.72;100.00;99098.25;5588884;31;34545;-65
2023/03/10 02:11:49;;;;;;;;;;;;;;;5.58;100.00;99112.91;5589324;31;34643;-66
2023/03/10 02:14:57;;;;;;;;;;;;;;;5.47;100.00;99103.56;5589692;31;34285;-65
2023/03/10 02:18:06;;;;;;;;;;;;;;;5.40;100.00;99092.06;5589467;31;34212;-65
2023/03/10 02:21:14;;;;;;;;;;;;;;;5.36;100.00;99089.94;5589314;31;35047;-65
2023/03/10 02:24:29;;;;;;;;;;;;;;;5.32;100.00;99088.66;5589629;31;34803;-65
2023/03/10 02:27:36;;;;;;;;;;;;;;;5.25;100.00;99091.94;5588595;31;34328;-65
2023/03/10 02:30:46;;;;;;;;;;;;;;;5.19;100.00;99084.69;5588477;31;34923;-65
2023/03/10 02:33:58;;;;;;;;;;;;;;;5.11;100.00;99082.06;5589522;31;34868;-65
2023/03/10 02:37:17;;;;;;;;;;;;;;;5.04;100.00;99083.69;5588464;31;34283;-65
2023/03/10 02:40:33;;;;;;;;;;;;;;;5.01;100.00;99078.78;5589125;31;34330;-66
2023/03/10 02:43:42;;;;;;;;;;;;;;;4.97;100.00;99076.66;5589161;31;34844;-65
2023/03/10 02:46:50;;;;;;;;;;;;;;;4.92;100.00;99071.06;5589201;31;34216;-65
2023/03/10 02:49:58;;;;;;;;;;;;;;;4.88;100.00;99072.38;5589042;31;34365;-65
2023/03/10 02:53:10;;;;;;;;;;;;;;;4.88;100.00;99067.12;5589002;31;34679;-65
2023/03/10 02:56:20;;;;;;;;;;;;;;;4.85;100.00;99063.00;5588989;31;34379;-66
2023/03/10 02:59:30;;;;;;;;;;;;;;;4.78;100.00;99059.41;5588989;31;34968;-65
2023/03/10 03:02:40;;;;;;;;;;;;;;;4.72;100.00;99063.50;5588832;31;34582;-65
2023/03/10 03:05:49;;;;;;;;;;;;;;;4.71;100.00;99064.47;5588604;31;34982;-65
2023/03/10 03:08:57;;;;;;;;;;;;;;;4.74;100.00;99056.25;5591113;31;34408;-65
2023/03/10 03:12:03;;;;;;;;;;;;;;;5.11;100.00;99058.41;5590962;31;34336;-65
2023/03/10 03:15:10;;;;;;;;;;;;;;;5.18;100.00;99046.22;5590323;31;34936;-65
2023/03/10 03:18:20;;;;;;;;;;;;;;;5.01;100.00;99043.78;5591282;31;34713;-65
2023/03/10 03:21:28;;;;;;;;;;;;;;;4.95;100.00;99036.56;5591165;31;33848;-65
2023/03/10 03:24:38;;;;;;;;;;;;;;;4.86;100.00;99035.75;5591002;31;35034;-65
2023/03/10 03:27:48;;;;;;;;;;;;;;;4.80;100.00;99026.72;5591036;31;34193;-65
2023/03/10 03:30:56;;;;;;;;;;;;;;;4.73;100.00;99012.59;5590872;31;35531;-65
2023/03/10 03:34:06;;;;;;;;;;;;;;;4.68;100.00;99009.66;5591309;31;34429;-65
2023/03/10 03:37:14;;;;;;;;;;;;;;;4.69;100.00;99013.91;5590866;31;34943;-64
2023/03/10 03:40:20;;;;;;;;;;;;;;;4.65;100.00;99009.13;5590775;31;34905;-65
2023/03/10 03:43:29;;;;;;;;;;;;;;;4.66;100.00;99008.16;5590798;31;34439;-66
2023/03/10 03:46:36;;;;;;;;;;;;;;;4.69;100.00;99000.78;5590797;31;34166;-64
2023/03/10 03:49:49;;;;;;;;;;;;;;;5.09;100.00;98997.28;5590641;31;34908;-65
2023/03/10 03:53:00;;;;;;;;;;;;;;;5.26;100.00;98982.31;5590100;31;34533;-65
2023/03/10 03:56:09;;;;;;;;;;;;;;;5.44;100.00;98976.84;5590480;31;35198;-65
2023/03/10 03:59:19;;;;;;;;;;;;;;;5.73;100.00;98979.69;5590009;31;34936;-65
2023/03/10 04:02:31;;;;;;;;;;;;;;;5.59;100.00;98967.25;5590530;31;34721;-64
2023/03/10 04:05:41;;;;;;;;;;;;;;;5.34;100.00;98966.50;5590621;31;34283;-65
2023/03/10 04:08:49;;;;;;;;;;;;;;;5.41;100.00;98956.97;5589362;31;32787;-66
2023/03/10 04:11:56;;;;;;;;;;;;;;;5.60;100.00;98950.47;5589730;31;34918;-66
2023/03/10 04:15:07;;;;;;;;;;;;;;;5.87;100.00;98950.06;5589729;31;34948;-66
2023/03/10 04:18:18;;;;;;;;;;;;;;;5.93;100.00;98940.66;5590116;31;34888;-66
2023/03/10 04:21:26;;;;;;;;;;;;;;;5.67;100.00;98951.44;5589834;31;34309;-66
2023/03/10 04:24:36;;;;;;;;;;;;;;;5.52;100.00;98946.06;5589731;31;34632;-66
2023/03/10 04:27:41;;;;;;;;;;;;;;;5.38;100.00;98941.50;5590374;31;34441;-66
2023/03/10 04:30:50;;;;;;;;;;;;;;;5.45;100.00;98942.50;5590357;31;34258;-66
2023/03/10 04:33:58;;;;;;;;;;;;;;;5.45;100.00;98941.66;5590704;31;34331;-66
2023/03/10 04:37:07;;;;;;;;;;;;;;;5.61;100.00;98939.81;5590359;31;34805;-66
2023/03/10 04:40:13;;;;;;;;;;;;;;;5.61;100.00;98929.28;5590369;31;34240;-65
2023/03/10 04:43:23;;;;;;;;;;;;;;;5.61;100.00;98924.03;5576851;31;32591;-66
2023/03/10 04:46:32;;;;;;;;;;;;;;;5.48;100.00;98920.28;5590216;31;34661;-65
2023/03/10 04:49:42;;;;;;;;;;;;;;;5.39;100.00;98926.56;5590342;31;34228;-66
2023/03/10 04:52:52;;;;;;;;;;;;;;;5.35;100.00;98912.13;5590295;31;35394;-67
2023/03/10 04:56:03;;;;;;;;;;;;;;;5.40;100.00;98915.88;5590282;31;33926;-66
2023/03/10 04:59:10;;;;;;;;;;;;;;;5.38;100.00;98917.84;5589301;31;34511;-67
2023/03/10 05:02:21;;;;;;;;;;;;;;;5.32;100.00;98921.19;5589363;31;34764;-66
2023/03/10 05:05:29;;;;;;;;;;;;;;;5.74;100.00;98918.19;5590153;31;34341;-66
2023/03/10 05:08:37;;;;;;;;;;;;;;;5.73;100.00;98921.81;5589951;31;34237;-67
2023/03/10 05:11:43;;;;;;;;;;;;;;;5.76;100.00;98920.66;5589003;31;34834;-66
2023/03/10 05:14:50;;;;;;;;;;;;;;;5.82;100.00;98915.50;5589908;31;34479;-66
2023/03/10 05:18:00;;;;;;;;;;;;;;;5.77;100.00;98912.56;5589264;31;32576;-66
2023/03/10 05:21:07;;;;;;;;;;;;;;;5.84;100.00;98900.38;5589905;31;34854;-66
2023/03/10 05:24:15;;;;;;;;;;;;;;;5.83;100.00;98893.47;5589959;31;35613;-66
2023/03/10 05:27:25;;;;;;;;;;;;;;;5.91;100.00;98896.06;5589311;31;34194;-66
2023/03/10 05:30:32;;;;;;;;;;;;;;;5.92;100.00;98884.56;5587969;31;34130;-66
2023/03/10 05:33:40;;;;;;;;;;;;;;;6.03;100.00;98881.53;5589120;31;34913;-66
2023/03/10 05:36:47;;;;;;;;;;;;;;;6.04;100.00;98879.72;5589671;31;34275;-66
2023/03/10 05:39:58;;;;;;;;;;;;;;;6.20;100.00;98879.56;5589916;31;34836;-67
2023/03/10 05:43:07;;;;;;;;;;;;;;;6.28;100.00;98862.91;5589182;31;34175;-67
2023/03/10 05:46:19;;;;;;;;;;;;;;;6.34;100.00;98872.75;5589268;31;34598;-67
2023/03/10 05:49:30;;;;;;;;;;;;;;;6.37;100.00;98872.37;5588784;31;34167;-67
2023/03/10 05:52:39;;;;;;;;;;;;;;;6.42;100.00;98877.94;5588407;31;34115;-67
2023/03/10 05:55:49;;;;;;;;;;;;;;;6.46;100.00;98872.13;5575524;31;32654;-67
2023/03/10 05:58:55;;;;;;;;;;;;;;;6.51;100.00;98880.31;5576062;31;33258;-67
2023/03/10 06:02:01;;;;;;;;;;;;;;;6.60;100.00;98865.25;5575220;31;33435;-67
2023/03/10 06:05:08;;;;;;;;;;;;;;;6.65;100.00;98862.88;5575789;31;33519;-67
2023/03/10 06:08:14;;;;;;;;;;;;;;;6.65;100.00;98860.25;5588338;31;34428;-67
2023/03/10 06:11:20;;;;;;;;;;;;;;;6.73;100.00;98851.47;5588049;31;34147;-66
2023/03/10 06:14:25;;;;;;;;;;;;;;;6.85;100.00;98856.09;5574832;31;33571;-66
2023/03/10 06:17:33;;;;;;;;;;;;;;;6.99;100.00;98857.94;5588369;31;34706;-66
2023/03/10 06:20:39;;;;;;;;;;;;;;;7.18;100.00;98853.91;5588758;31;35034;-66
2023/03/10 06:23:47;;;;;;;;;;;;;;;7.22;100.00;98862.25;5587787;31;33091;-66
2023/03/10 06:26:52;;;;;;;;;;;;;;;7.30;100.00;98864.81;5587768;31;32785;-66
2023/03/10 06:29:58;;;;;;;;;;;;;;;7.31;100.00;98864.63;5587674;31;34114;-67
2023/03/10 06:33:07;;;;;;;;;;;;;;;7.47;100.00;98860.97;5588528;31;34504;-66
2023/03/10 06:36:15;;;;;;;;;;;;;;;7.35;100.00;98854.53;5588492;31;34286;-66
2023/03/10 06:39:21;;;;;;;;;;;;;;;7.49;100.00;98852.88;5588161;31;34950;-66
2023/03/10 06:42:25;;;;;;;;;;;;;;;7.60;100.00;98855.84;5587358;31;33149;-66
2023/03/10 06:45:29;;;;;;;;;;;;;;;7.66;100.00;98860.38;5574863;31;33667;-66
2023/03/10 06:48:33;;;;;;;;;;;;;;;7.83;100.00;98853.88;5587069;31;34198;-68
2023/03/10 06:51:37;;;;;;;;;;;;;;;8.13;100.00;98849.28;5588259;31;34912;-68
2023/03/10 06:54:42;;;;;;;;;;;;;;;8.28;100.00;98855.31;5587534;31;34790;-68
2023/03/10 06:57:47;;;;;;;;;;;;;;;8.67;100.00;98859.28;5587980;31;34804;-68
2023/03/10 07:00:51;;;;;;;;;;;;;;;8.75;100.00;98850.41;5588110;31;34819;-69
2023/03/10 07:03:56;;;;;;;;;;;;;;;8.68;100.00;98845.06;5587350;31;35001;-68
2023/03/10 07:06:59;;;;;;;;;;;;;;;8.82;100.00;98851.28;5587906;31;34325;-69
2023/03/10 07:10:04;;;;;;;;;;;;;;;8.98;100.00;98850.97;5587844;31;34136;-69
2023/03/10 07:13:16;;;;;;;;;;;;;;;9.20;100.00;98852.50;5587350;31;34231;-69
2023/03/10 07:16:20;;;;;;;;;;;;;;;8.74;100.00;98844.31;5588334;31;34227;-69
2023/03/10 07:19:26;;;;;;;;;;;;;;;9.16;100.00;98852.09;5588053;31;34215;-68
2023/03/10 07:22:32;;;;;;;;;;;;;;;8.83;100.00;98847.63;5587440;31;34599;-69
2023/03/10 07:25:41;;;;;;;;;;;;;;;8.88;100.00;98851.31;5587383;31;33982;-68
2023/03/10 07:28:45;;;;;;;;;;;;;;;8.98;100.00;98835.91;5587385;31;33245;-69
2023/03/10 07:31:50;;;;;;;;;;;;;;;8.94;100.00;98844.44;5587923;31;34651;-69
2023/03/10 07:34:55;;;;;;;;;;;;;;;9.72;100.00;98848.44;5586694;31;35078;-68
2023/03/10 07:37:59;;;;;;;;;;;;;;;10.79;100.00;98833.25;5574065;31;34573;-69
2023/03/10 07:41:07;;;;;;;;;;;;;;;11.11;100.00;98835.03;5587219;31;34939;-69
2023/03/10 07:44:12;;;;;;;;;;;;;;;11.59;100.00;98848.72;5587877;31;34711;-69
2023/03/10 07:47:18;;;;;;;;;;;;;;;11.51;100.00;98838.34;5586769;31;34323;-69
2023/03/10 07:50:26;;;;;;;;;;;;;;;12.09;100.00;98849.72;5587647;31;34837;-69
2023/03/10 07:53:32;;;;;;;;;;;;;;;13.07;100.00;98842.72;5589803;31;34922;-70
2023/03/10 07:56:39;;;;;;;;;;;;;;;13.03;99.54;98844.19;5589518;31;34303;-70
2023/03/10 07:59:44;;;;;;;;;;;;;;;14.11;91.41;98838.16;5589423;31;34912;-70
2023/03/10 08:02:49;;;;;;;;;;;;;;;14.93;82.56;98823.06;5589703;31;34884;-70
2023/03/10 08:05:54;;;;;;;;;;;;;;;14.63;81.15;98820.50;5590443;31;35131;-70
2023/03/10 08:08:59;;;;;;;;;;;;;;;13.57;89.79;98813.28;5590175;31;35572;-70
2023/03/10 08:12:04;;;;;;;;;;;;;;;14.44;85.11;98806.47;5590173;31;34336;-69
2023/03/10 08:15:10;;;;;;;;;;;;;;;16.19;72.76;98809.53;5576648;31;34352;-69
2023/03/10 08:18:18;;;;;;;;;;;;;;;16.61;67.62;98804.59;5577158;31;33367;-69
2023/03/10 08:21:25;;;;;;;;;;;;;;;15.13;74.80;98804.81;5589528;31;35406;-70
2023/03/10 08:24:31;;;;;;;;;;;;;;;15.87;69.91;98790.53;5589548;31;34106;-69
2023/03/10 08:27:35;;;;;;;;;;;;;;;15.45;72.68;98787.28;5576692;31;32890;-69
2023/03/10 08:30:40;;;;;;;;;;;;;;;17.31;64.61;98790.56;5590131;31;34847;-69
2023/03/10 08:34:05;;;;;;;;;;;;;;;18.53;59.15;98789.91;5589594;31;34698;-69
2023/03/10 08:37:11;;;;;;;;;;;;;;;17.81;59.29;98785.00;5589521;31;34389;-69
2023/03/10 08:40:18;;;;;;;;;;;;;;;16.99;63.92;98773.56;5589473;31;34523;-70
2023/03/10 08:43:23;;;;;;;;;;;;;;;19.69;53.60;98779.78;5575817;31;34423;-71
2023/03/10 08:46:28;;;;;;;;;;;;;;;19.33;53.68;98775.31;5589615;31;34178;-70
2023/03/10 08:49:35;;;;;;;;;;;;;;;16.71;61.55;98764.59;5589377;31;33801;-70
2023/03/10 08:52:40;;;;;;;;;;;;;;;16.78;62.27;98756.41;5588932;31;34167;-69
2023/03/10 08:55:44;;;;;;;;;;;;;;;15.87;67.12;98753.09;5576171;31;33756;-69
2023/03/10 08:58:49;;;;;;;;;;;;;;;14.96;71.97;98751.31;5588542;31;34556;-70
2023/03/10 09:01:56;;;;;;;;;;;;;;;14.26;79.82;98743.34;5588739;31;34334;-70
2023/03/10 09:05:02;;;;;;;;;;;;;;;14.14;81.67;98739.81;5576061;31;34678;-70
2023/03/10 09:08:08;;;;;;;;;;;;;;;14.66;77.52;98732.00;5588983;31;34417;-70
2023/03/10 09:11:16;;;;;;;;;;;;;;;14.44;78.17;98733.59;5588425;31;34796;-70
2023/03/10 09:14:22;;;;;;;;;;;;;;;14.03;81.31;98732.66;5588741;31;34099;-70
2023/03/10 09:17:26;;;;;;;;;;;;;;;14.20;82.17;98728.25;5575513;31;34120;-69
2023/03/10 09:20:30;;;;;;;;;;;;;;;14.64;79.26;98732.22;5589342;31;34324;-69
2023/03/10 09:23:35;;;;;;;;;;;;;;;14.07;82.14;98719.66;5589121;31;34831;-69
2023/03/10 09:26:40;;;;;;;;;;;;;;;14.42;81.47;98720.53;5588574;31;34173;-70
2023/03/10 09:29:48;;;;;;;;;;;;;;;14.73;79.12;98719.31;5588627;31;34254;-70
2023/03/10 09:32:54;;;;;;;;;;;;;;;14.62;79.47;98712.16;5590001;31;34412;-69
2023/03/10 09:36:01;;;;;;;;;;;;;;;14.98;78.84;98711.84;5589098;31;34683;-70
2023/03/10 09:39:11;;;;;;;;;;;;;;;14.78;79.70;98708.75;5589138;31;34427;-69
2023/03/10 09:42:16;;;;;;;;;;;;;;;14.14;88.05;98705.16;5589152;31;33175;-70
2023/03/10 09:45:42;;;;;;;;;;;;;;;13.72;92.99;98692.94;5589457;31;34192;-69
2023/03/10 09:48:52;;;;;;;;;;;;;;;14.11;91.42;98691.47;5589540;31;34456;-70
2023/03/10 09:51:57;;;;;;;;;;;;;;;14.32;89.78;98682.91;5575658;31;34708;-69
2023/03/10 09:55:24;;;;;;;;;;;;;;;14.24;89.88;98683.25;5589653;31;34191;-69
2023/03/10 09:58:31;;;;;;;;;;;;;;;14.23;89.02;98676.31;5583192;31;34645;-70
2023/03/10 10:01:37;;;;;;;;;;;;;;;14.76;89.24;98676.16;5588846;31;34281;-70
2023/03/10 10:04:43;;;;;;;;;;;;;;;15.41;81.16;98673.91;5588878;31;33537;-68
2023/03/10 10:07:51;;;;;;;;;;;;;;;15.84;79.61;98659.16;5588929;31;34255;-68
2023/03/10 10:10:59;;;;;;;;;;;;;;;15.88;79.13;98663.78;5588329;31;34533;-68
2023/03/10 10:14:10;;;;;;;;;;;;;;;15.59;80.48;98656.88;5588177;31;34956;-69
2023/03/10 10:17:24;;;;;;;;;;;;;;;15.29;81.77;98651.81;5576490;31;34238;-69
2023/03/10 10:20:48;;;;;;;;;;;;;;;15.08;85.24;98631.09;5589278;31;34714;-69
2023/03/10 10:23:58;;;;;;;;;;;;;;;15.18;84.98;98626.75;5575163;31;35167;-68
2023/03/10 10:27:02;;;;;;;;;;;;;;;15.30;84.68;98624.00;5587729;31;33305;-70
2023/03/10 10:30:25;;;;;;;;;;;;;;;15.09;84.56;98619.38;5587829;31;34727;-70
2023/03/10 10:33:49;;;;;;;;;;;;;;;15.57;81.88;98609.03;5587744;31;34407;-69
2023/03/10 10:36:54;;;;;;;;;;;;;;;15.28;78.36;98594.06;5587987;31;34266;-69
2023/03/10 10:39:59;;;;;;;;;;;;;;;15.76;75.41;98598.87;5587744;31;34932;-70
2023/03/10 10:43:06;;;;;;;;;;;;;;;15.74;74.71;98594.81;5588338;31;34500;-69
2023/03/10 10:46:12;;;;;;;;;;;;;;;15.87;73.71;98599.84;5588167;31;34735;-69
2023/03/10 10:49:18;;;;;;;;;;;;;;;15.92;74.52;98591.91;5587440;31;34646;-69
2023/03/10 10:52:25;;;;;;;;;;;;;;;16.22;71.87;98594.97;5587604;31;34840;-69
2023/03/10 10:55:35;;;;;;;;;;;;;;;15.86;73.08;98582.19;5588207;31;34392;-68
2023/03/10 10:58:40;;;;;;;;;;;;;;;15.99;73.06;98579.16;5587810;31;34335;-70
2023/03/10 11:01:56;;;;;;;;;;;;;;;16.52;71.09;98575.81;5588434;31;34212;-69
2023/03/10 11:05:08;;;;;;;;;;;;;;;17.34;66.33;98567.59;5575308;31;32981;-69
2023/03/10 11:08:29;;;;;;;;;;;;;;;16.88;68.14;98569.03;5587541;31;34201;-70
2023/03/10 11:11:40;;;;;;;;;;;;;;;16.28;70.53;98556.53;5587100;31;34583;-69
2023/03/10 11:14:54;;;;;;;;;;;;;;;15.93;72.98;98550.72;5588160;31;34394;-69
2023/03/10 11:18:16;;;;;;;;;;;;;;;16.33;73.88;98537.87;5587365;31;34714;-70
2023/03/10 11:21:27;;;;;;;;;;;;;;;18.82;62.58;98538.66;5588035;31;33308;-69
2023/03/10 11:24:30;;;;;;;;;;;;;;;19.69;57.23;98529.56;5587135;31;34699;-69
2023/03/10 11:27:47;;;;;;;;;;;;;;;18.21;61.43;98527.66;5575262;31;33012;-69
2023/03/10 11:31:03;;;;;;;;;;;;;;;16.77;65.49;98513.75;5589750;31;34825;-69
2023/03/10 11:34:29;;;;;;;;;;;;;;;17.08;66.09;98504.12;5577551;31;34187;-69
2023/03/10 11:37:41;;;;;;;;;;;;;;;18.47;60.31;98507.09;5590569;31;34933;-69
2023/03/10 11:40:47;;;;;;;;;;;;;;;20.15;54.67;98505.19;5590827;31;34296;-71
2023/03/10 11:43:57;;;;;;;;;;;;;;;20.97;51.81;98488.34;5589653;31;34586;-69
2023/03/10 11:47:05;;;;;;;;;;;;;;;21.10;50.76;98484.22;5590008;31;34515;-70
2023/03/10 11:50:17;;;;;;;;;;;;;;;22.62;47.07;98477.97;5589488;31;34521;-70
2023/03/10 11:53:24;;;;;;;;;;;;;;;24.87;41.88;98468.97;5590266;31;34282;-69
2023/03/10 11:56:28;;;;;;;;;;;;;;;21.49;48.50;98463.38;5589366;31;34821;-69
2023/03/10 11:59:35;;;;;;;;;;;;;;;22.01;47.60;98448.25;5576860;31;33407;-70
2023/03/10 12:02:47;;;;;;;;;;;;;;;21.84;46.90;98440.59;5590054;31;34491;-70
2023/03/10 12:05:53;;;;;;;;;;;;;;;26.22;38.81;98441.25;5589912;31;34765;-70
2023/03/10 12:09:00;;;;;;;;;;;;;;;26.39;37.16;98443.97;5588928;31;33230;-70
2023/03/10 12:12:06;;;;;;;;;;;;;;;24.53;40.85;98437.72;5588942;31;34897;-71
2023/03/10 12:15:19;;;;;;;;;;;;;;;26.23;37.77;98430.06;5589370;31;34880;-70
2023/03/10 12:18:23;;;;;;;;;;;;;;;26.38;37.79;98426.09;5589745;31;34522;-71
2023/03/10 12:21:31;;;;;;;;;;;;;;;25.84;38.56;98411.09;5589402;31;34368;-70
2023/03/10 12:24:44;;;;;;;;;;;;;;;22.57;44.00;98417.75;5590384;31;34572;-69
2023/03/10 12:28:08;;;;;;;;;;;;;;;23.22;43.48;98399.69;5589231;31;33930;-70
2023/03/10 12:31:31;;;;;;;;;;;;;;;24.28;41.67;98391.38;5589081;31;33419;-70
2023/03/10 12:34:35;;;;;;;;;;;;;;;22.24;44.23;98377.19;5589045;31;34356;-70
2023/03/10 12:37:40;;;;;;;;;;;;;;;24.37;41.05;98376.00;5588703;31;34303;-71
2023/03/10 12:40:48;;;;;;;;;;;;;;;23.71;41.57;98380.94;5588751;31;33265;-71
2023/03/10 12:44:26;;;;;;;;;;;;;;;23.21;42.75;98354.81;5589377;31;34878;-70
2023/03/10 12:47:34;;;;;;;;;;;;;;;22.42;44.44;98359.34;5589053;31;34862;-69
2023/03/10 12:50:45;;;;;;;;;;;;;;;21.50;46.80;98348.16;5589705;31;34787;-70
2023/03/10 12:54:02;;;;;;;;;;;;;;;22.90;44.21;98346.44;5589649;31;34404;-69
2023/03/10 12:57:25;;;;;;;;;;;;;;;23.28;43.10;98341.69;5589716;31;34745;-69
2023/03/10 13:00:47;;;;;;;;;;;;;;;24.51;39.61;98342.31;5589943;31;34844;-69
2023/03/10 13:03:53;;;;;;;;;;;;;;;22.29;44.92;98336.59;5589175;31;33756;-69
2023/03/10 13:07:02;;;;;;;;;;;;;;;23.38;42.27;98336.88;5576472;31;34723;-70
2023/03/10 13:10:15;;;;;;;;;;;;;;;23.54;42.67;98323.87;5588741;31;32976;-70
2023/03/10 13:13:20;;;;;;;;;;;;;;;22.90;43.92;98314.78;5589561;31;34891;-71
2023/03/10 13:16:25;;;;;;;;;;;;;;;23.39;43.24;98314.13;5589137;31;34911;-70
2023/03/10 13:19:30;;;;;;;;;;;;;;;26.47;38.32;98303.72;5590067;31;34314;-70
2023/03/10 13:22:35;;;;;;;;;;;;;;;22.53;44.80;98294.06;5589871;31;34062;-69
2023/03/10 13:25:50;;;;;;;;;;;;;;;22.24;46.69;98301.56;5589969;31;34324;-69
2023/03/10 13:28:59;;;;;;;;;;;;;;;20.87;49.80;98290.84;5588874;31;34376;-69
2023/03/10 13:32:16;;;;;;;;;;;;;;;19.53;53.99;98297.47;5589684;31;34240;-69
2023/03/10 13:35:23;;;;;;;;;;;;;;;21.14;50.52;98294.63;5588768;31;34871;-69
2023/03/10 13:38:27;;;;;;;;;;;;;;;21.27;49.84;98300.41;5588186;31;33224;-69
2023/03/10 13:41:36;;;;;;;;;;;;;;;22.24;46.98;98289.94;5588789;31;34349;-69
2023/03/10 13:44:41;;;;;;;;;;;;;;;20.76;50.09;98274.00;5588580;31;34817;-68
2023/03/10 13:47:48;;;;;;;;;;;;;;;18.75;55.95;98263.28;5589020;31;34823;-68
2023/03/10 13:51:05;;;;;;;;;;;;;;;17.88;60.08;98272.41;5588498;31;34819;-68
2023/03/10 13:54:27;;;;;;;;;;;;;;;18.19;59.59;98258.75;5588506;31;34566;-67
2023/03/10 13:57:33;;;;;;;;;;;;;;;17.62;61.01;98264.28;5588439;31;34876;-67
2023/03/10 14:00:46;;;;;;;;;;;;;;;17.25;62.78;98258.25;5588630;31;33761;-69
2023/03/10 14:03:56;;;;;;;;;;;;;;;17.12;64.97;98242.66;5588551;31;34122;-68
2023/03/10 14:07:08;;;;;;;;;;;;;;;17.17;65.60;98248.03;5589746;31;34895;-68
2023/03/10 14:10:18;;;;;;;;;;;;;;;16.85;67.51;98243.59;5587828;31;34115;-67
2023/03/10 14:13:41;;;;;;;;;;;;;;;16.72;69.02;98240.59;5575559;31;33630;-68
2023/03/10 14:16:49;;;;;;;;;;;;;;;18.69;59.35;98246.38;5588382;31;34827;-69
2023/03/10 14:19:54;;;;;;;;;;;;;;;20.39;53.48;98240.37;5589319;31;34230;-69
2023/03/10 14:23:17;;;;;;;;;;;;;;;20.93;51.58;98246.56;5589314;31;34146;-68
2023/03/10 14:26:22;;;;;;;;;;;;;;;18.76;56.58;98246.09;5588093;31;34104;-69
2023/03/10 14:29:29;;;;;;;;;;;;;;;17.71;60.81;98241.28;5587689;31;34071;-68
2023/03/10 14:32:36;;;;;;;;;;;;;;;16.88;64.86;98239.63;5587982;31;34071;-68
2023/03/10 14:35:45;;;;;;;;;;;;;;;16.46;68.11;98235.03;5587465;31;35403;-68
2023/03/10 14:38:51;;;;;;;;;;;;;;;16.30;69.90;98241.37;5588854;31;35017;-67
2023/03/10 14:41:57;;;;;;;;;;;;;;;16.09;70.82;98243.06;5587973;31;34382;-69
2023/03/10 14:45:17;;;;;;;;;;;;;;;16.01;73.18;98237.38;5587976;31;34183;-66
2023/03/10 14:48:24;;;;;;;;;;;;;;;16.18;72.23;98230.03;5587782;31;32919;-67
2023/03/10 14:51:30;;;;;;;;;;;;;;;16.04;73.19;98218.94;5587778;31;35027;-67
2023/03/10 14:54:41;;;;;;;;;;;;;;;16.11;73.51;98216.06;5588443;31;34761;-67
2023/03/10 14:57:49;;;;;;;;;;;;;;;15.95;74.13;98204.44;5574884;31;35056;-66
2023/03/10 15:00:55;;;;;;;;;;;;;;;15.86;77.63;98200.63;5587175;31;34209;-65
2023/03/10 15:04:01;;;;;;;;;;;;;;;15.44;78.68;98194.31;5586818;31;33603;-66
2023/03/10 15:07:08;;;;;;;;;;;;;;;15.35;80.61;98185.13;5587180;31;34857;-64
2023/03/10 15:10:16;;;;;;;;;;;;;;;15.34;81.15;98194.22;5588050;31;34377;-63
2023/03/10 15:13:24;;;;;;;;;;;;;;;15.32;81.63;98190.97;5574344;31;34837;-66
2023/03/10 15:16:29;;;;;;;;;;;;;;;15.33;82.39;98192.59;5588007;31;34362;-66
2023/03/10 15:19:37;;;;;;;;;;;;;;;15.26;83.11;98184.78;5561822;31;34407;-66
2023/03/10 15:22:44;;;;;;;;;;;;;;;15.17;84.20;98187.09;5587413;31;34305;-66
2023/03/10 15:25:50;;;;;;;;;;;;;;;15.12;86.49;98175.53;5587358;31;34178;-66
2023/03/10 15:28:56;;;;;;;;;;;;;;;15.09;87.46;98178.72;5587003;31;34442;-66
2023/03/10 15:32:05;;;;;;;;;;;;;;;15.07;89.95;98178.16;5574152;31;34254;-65
2023/03/10 15:35:11;;;;;;;;;;;;;;;14.91;94.20;98177.16;5574326;31;33651;-66
2023/03/10 15:38:19;;;;;;;;;;;;;;;14.77;96.54;98183.94;5586691;31;34723;-66
2023/03/10 15:41:25;;;;;;;;;;;;;;;14.74;98.18;98181.75;5587817;31;34733;-65
2023/03/10 15:44:33;;;;;;;;;;;;;;;14.67;100.00;98170.44;5586812;31;34234;-67
2023/03/10 15:47:38;;;;;;;;;;;;;;;14.63;100.00;98172.00;5586872;31;34867;-66
2023/03/10 15:50:43;;;;;;;;;;;;;;;14.55;100.00;98173.25;5586738;31;34829;-65
2023/03/10 15:53:48;;;;;;;;;;;;;;;14.49;100.00;98182.22;5587389;31;35007;-66
2023/03/10 15:56:55;;;;;;;;;;;;;;;14.40;100.00;98181.03;5586993;31;34529;-66
2023/03/10 16:00:02;;;;;;;;;;;;;;;14.37;100.00;98176.22;5587260;31;34909;-65
2023/03/10 16:03:07;;;;;;;;;;;;;;;14.34;100.00;98176.66;5586460;31;34874;-65
2023/03/10 16:06:12;;;;;;;;;;;;;;;14.30;100.00;98168.34;5586545;31;32538;-66
2023/03/10 16:09:18;;;;;;;;;;;;;;;14.25;100.00;98167.47;5587286;31;34924;-67
2023/03/10 16:12:23;;;;;;;;;;;;;;;14.28;100.00;98164.31;5586891;31;34900;-67
2023/03/10 16:15:29;;;;;;;;;;;;;;;14.22;100.00;98163.44;5589072;31;33721;-65
2023/03/10 16:18:37;;;;;;;;;;;;;;;14.15;100.00;98161.97;5588783;31;33894;-66
2023/03/10 16:21:44;;;;;;;;;;;;;;;14.06;100.00;98150.91;5589415;31;33974;-66